Main page
Satellite images 10-day forecastsClimateMarine weather Cyclones Lightning AirportsFAQ Newsletter About
Weather : Europe Africa North America South America Asia Australia-Oceania Others
Languages Contact

Mangalore, India

Mangalore Airport

latitude: 12-55N, longitude: 074-53E, elevation: 102 m


METAR: missing
TAF: VOML 020000Z 0203/0212 09005KT 6000 SCT015 SCT080 BECMG 0206/0207 29010KT TEMPO 0209/0212 3000 TSRA/RA SCT015 FEW025CB BKN080

Time: 08:37 (03:07 UTC)

Forecast

The report was made 3 hours and 7 minutes ago, at 00:00 UTC
Forecast valid from 02 at 03 UTC to 02 at 12 UTC
Wind 5 kt from the East
Visibility: 6000 m
Scattered clouds at a height of 1500 ft
Scattered clouds at a height of 8000 ft
Becoming
from 02 at 06 UTC to 02 at 07 UTC
Wind 10 kt from the West/Northwest
Temporary
from 02 at 09 UTC to 02 at 12 UTC
Visibility: 3000 m
Scattered clouds at a height of 1500 ft
Few clouds at a height of 2500 ft, Cumulonimbus.
Broken clouds at a height of 8000 ft
The information on this site is subject to a disclaimer
Weather : Europe Africa North America South America Asia Australia-Oceania Others
Satellite images 10-day forecastsClimateMarine weather Cyclones Lightning AirportsFAQ Languages Contact Newsletter About